createdAt,value
2017-10-15T00:00:36.515Z,1020.96
2017-10-15T00:01:45.194Z,1020.93
2017-10-15T00:02:54.840Z,1020.94
2017-10-15T00:04:04.170Z,1020.95
2017-10-15T00:05:13.477Z,1020.92
2017-10-15T00:06:22.457Z,1020.9
2017-10-15T00:07:31.108Z,1020.94
2017-10-15T00:08:40.742Z,1020.96
2017-10-15T00:09:50.383Z,1020.91
2017-10-15T00:10:59.367Z,1020.94
2017-10-15T00:12:08.670Z,1020.88
2017-10-15T00:13:17.659Z,1020.91
2017-10-15T00:14:26.337Z,1020.88
2017-10-15T00:15:35.320Z,1020.89
2017-10-15T00:16:43.984Z,1020.87
2017-10-15T00:17:52.968Z,1020.9
2017-10-15T00:19:01.648Z,1020.9
2017-10-15T00:20:10.320Z,1020.88
2017-10-15T00:21:19.314Z,1020.88
2017-10-15T00:22:27.968Z,1020.87
2017-10-15T00:23:37.606Z,1020.91
2017-10-15T00:24:46.256Z,1020.93
2017-10-15T00:25:55.238Z,1020.91
2017-10-15T00:27:04.241Z,1020.91
2017-10-15T00:28:13.221Z,1020.9
2017-10-15T00:29:22.533Z,1020.9
2017-10-15T00:30:31.511Z,1020.95
2017-10-15T00:31:40.160Z,1020.93
2017-10-15T00:32:49.141Z,1020.96
2017-10-15T00:33:57.799Z,1020.95
2017-10-15T00:35:06.786Z,1020.92
2017-10-15T00:36:16.097Z,1020.94
2017-10-15T00:37:24.788Z,1020.92
2017-10-15T00:38:33.502Z,1020.94
2017-10-15T00:39:42.504Z,1020.92
2017-10-15T00:40:51.141Z,1020.93
2017-10-15T00:41:59.799Z,1020.91
2017-10-15T00:43:08.451Z,1020.93
2017-10-15T00:44:17.106Z,1020.9
2017-10-15T00:45:26.087Z,1020.91
2017-10-15T00:46:35.382Z,1020.94
2017-10-15T00:47:44.401Z,1020.96
2017-10-15T00:48:53.687Z,1020.93
2017-10-15T00:50:02.669Z,1020.89
2017-10-15T00:51:11.309Z,1020.9
2017-10-15T00:52:20.308Z,1020.9
2017-10-15T00:53:29.662Z,1020.9
2017-10-15T00:54:38.995Z,1020.95
2017-10-15T00:55:48.324Z,1020.91
2017-10-15T00:56:57.305Z,1020.92
2017-10-15T00:58:06.621Z,1020.92
2017-10-15T00:59:15.590Z,1020.91
2017-10-15T01:00:24.253Z,1020.93
2017-10-15T01:01:32.925Z,1020.91
2017-10-15T01:02:42.252Z,1020.9
2017-10-15T01:03:50.912Z,1020.94
2017-10-15T01:04:59.574Z,1020.93
2017-10-15T01:06:08.874Z,1020.9
2017-10-15T01:07:18.180Z,1020.9
2017-10-15T01:08:27.161Z,1020.89
2017-10-15T01:09:36.155Z,1020.87
2017-10-15T01:10:45.140Z,1020.9
2017-10-15T01:11:54.443Z,1020.86
2017-10-15T01:13:03.422Z,1020.89
2017-10-15T01:14:12.735Z,1020.87
2017-10-15T01:15:21.734Z,1020.88
2017-10-15T01:16:30.761Z,1020.87
2017-10-15T01:17:39.746Z,1020.83
2017-10-15T01:18:48.753Z,1020.83
2017-10-15T01:19:58.064Z,1020.81
2017-10-15T01:21:07.033Z,1020.79
2017-10-15T01:22:16.018Z,1020.78
2017-10-15T01:23:25.358Z,1020.79
2017-10-15T01:24:34.350Z,1020.77
2017-10-15T01:25:43.016Z,1020.79
2017-10-15T01:26:51.990Z,1020.76
2017-10-15T01:28:01.632Z,1020.77
2017-10-15T01:29:10.955Z,1020.79
2017-10-15T01:30:19.941Z,1020.81
2017-10-15T01:31:29.263Z,1020.8
2017-10-15T01:32:38.589Z,1020.78
2017-10-15T01:33:47.575Z,1020.78
2017-10-15T01:34:56.249Z,1020.72
2017-10-15T01:36:04.905Z,1020.76
2017-10-15T01:37:13.875Z,1020.79
2017-10-15T01:38:23.866Z,1020.76
2017-10-15T01:39:32.954Z,1020.77
2017-10-15T01:40:42.264Z,1020.73
2017-10-15T01:41:51.577Z,1020.74
2017-10-15T01:43:00.945Z,1020.75
2017-10-15T01:44:10.266Z,1020.76
2017-10-15T01:45:20.010Z,1020.72
2017-10-15T01:46:29.004Z,1020.74
2017-10-15T01:47:38.327Z,1020.74
2017-10-15T01:48:47.320Z,1020.69
2017-10-15T01:49:56.953Z,1020.72
2017-10-15T01:51:05.684Z,1020.68
2017-10-15T01:52:14.698Z,1020.68
2017-10-15T01:53:23.692Z,1020.67
2017-10-15T01:54:32.350Z,1020.62
2017-10-15T01:55:42.671Z,1020.62
2017-10-15T01:56:51.657Z,1020.61
2017-10-15T01:58:00.656Z,1020.63
2017-10-15T01:59:09.320Z,1020.6
2017-10-15T02:00:18.657Z,1020.61
2017-10-15T02:01:27.981Z,1020.58
2017-10-15T02:02:37.284Z,1020.59
2017-10-15T02:03:45.943Z,1020.55
2017-10-15T02:04:55.263Z,1020.59
2017-10-15T02:06:03.913Z,1020.57
2017-10-15T02:07:13.547Z,1020.59
2017-10-15T02:08:22.539Z,1020.57
2017-10-15T02:09:31.857Z,1020.58
2017-10-15T02:10:41.150Z,1020.57
2017-10-15T02:11:50.153Z,1020.57
2017-10-15T02:12:58.863Z,1020.56
2017-10-15T02:14:07.835Z,1020.56
2017-10-15T02:15:16.879Z,1020.61
2017-10-15T02:16:25.889Z,1020.58
2017-10-15T02:17:35.250Z,1020.58
2017-10-15T02:18:43.902Z,1020.57
2017-10-15T02:19:53.218Z,1020.55
2017-10-15T02:21:02.860Z,1020.53
2017-10-15T02:22:12.172Z,1020.52
2017-10-15T02:23:20.823Z,1020.58
2017-10-15T02:24:29.811Z,1020.57
2017-10-15T02:25:39.591Z,1020.56
2017-10-15T02:26:48.556Z,1020.55
2017-10-15T02:27:57.855Z,1020.58
2017-10-15T02:29:06.831Z,1020.57
2017-10-15T02:30:16.149Z,1020.53
2017-10-15T02:31:25.119Z,1020.55
2017-10-15T02:32:34.128Z,1020.52
2017-10-15T02:33:43.444Z,1020.51
2017-10-15T02:34:52.107Z,1020.53
2017-10-15T02:36:00.772Z,1020.52
2017-10-15T02:37:10.088Z,1020.53
2017-10-15T02:38:18.777Z,1020.53
2017-10-15T02:39:27.796Z,1020.52
2017-10-15T02:40:36.775Z,1020.56
2017-10-15T02:41:46.075Z,1020.53
2017-10-15T02:42:55.817Z,1020.53
2017-10-15T02:44:05.153Z,1020.52
2017-10-15T02:45:13.804Z,1020.51
2017-10-15T02:46:22.466Z,1020.56
2017-10-15T02:47:31.792Z,1020.54
2017-10-15T02:48:41.436Z,1020.56
2017-10-15T02:49:50.754Z,1020.6
2017-10-15T02:50:59.752Z,1020.64
2017-10-15T02:52:08.727Z,1020.59
2017-10-15T02:53:18.039Z,1020.63
2017-10-15T02:54:27.682Z,1020.57
2017-10-15T02:55:36.993Z,1020.53
2017-10-15T02:56:46.305Z,1020.52
2017-10-15T02:57:55.305Z,1020.52
2017-10-15T02:59:04.949Z,1020.51
2017-10-15T03:00:13.945Z,1020.55
2017-10-15T03:01:22.936Z,1020.51
2017-10-15T03:02:31.904Z,1020.55
2017-10-15T03:03:40.887Z,1020.51
2017-10-15T03:04:49.872Z,1020.47
2017-10-15T03:05:58.994Z,1020.52
2017-10-15T03:07:07.958Z,1020.49
2017-10-15T03:08:16.611Z,1020.48
2017-10-15T03:09:25.952Z,1020.5
2017-10-15T03:10:35.273Z,1020.49
2017-10-15T03:11:44.382Z,1020.51
2017-10-15T03:12:54.341Z,1020.48
2017-10-15T03:14:03.334Z,1020.52
2017-10-15T03:15:11.998Z,1020.52
2017-10-15T03:16:21.646Z,1020.54
2017-10-15T03:17:30.637Z,1020.5
2017-10-15T03:18:39.296Z,1020.54
2017-10-15T03:19:48.637Z,1020.55
2017-10-15T03:20:57.290Z,1020.53
2017-10-15T03:22:06.267Z,1020.52
2017-10-15T03:23:15.701Z,1020.51
2017-10-15T03:24:24.673Z,1020.51
2017-10-15T03:25:34.315Z,1020.49
2017-10-15T03:26:43.618Z,1020.5
2017-10-15T03:27:52.604Z,1020.52
2017-10-15T03:29:01.609Z,1020.51
2017-10-15T03:30:11.258Z,1020.5
2017-10-15T03:31:20.622Z,1020.54
2017-10-15T03:32:29.936Z,1020.53
2017-10-15T03:33:38.919Z,1020.58
2017-10-15T03:34:47.896Z,1020.58
2017-10-15T03:35:57.552Z,1020.57
2017-10-15T03:37:06.862Z,1020.55
2017-10-15T03:38:15.858Z,1020.54
2017-10-15T03:39:24.856Z,1020.56
2017-10-15T03:40:33.833Z,1020.56
2017-10-15T03:41:42.831Z,1020.53
2017-10-15T03:42:51.821Z,1020.53
2017-10-15T03:44:01.139Z,1020.53
2017-10-15T03:45:09.877Z,1020.54
2017-10-15T03:46:18.856Z,1020.52
2017-10-15T03:47:28.164Z,1020.54
2017-10-15T03:48:37.468Z,1020.5
2017-10-15T03:49:46.481Z,1020.53
2017-10-15T03:50:55.806Z,1020.59
2017-10-15T03:52:05.439Z,1020.5
2017-10-15T03:53:14.425Z,1020.55
2017-10-15T03:54:23.756Z,1020.57
2017-10-15T03:55:32.419Z,1020.53
2017-10-15T03:56:41.730Z,1020.56
2017-10-15T03:57:51.030Z,1020.55
2017-10-15T03:59:00.352Z,1020.55
2017-10-15T04:00:09.350Z,1020.55
2017-10-15T04:01:18.006Z,1020.53
2017-10-15T04:02:26.995Z,1020.55
2017-10-15T04:03:36.304Z,1020.54
2017-10-15T04:04:45.292Z,1020.53
2017-10-15T04:05:54.283Z,1020.57
2017-10-15T04:07:03.278Z,1020.58
2017-10-15T04:08:12.587Z,1020.54
2017-10-15T04:09:21.906Z,1020.53
2017-10-15T04:10:30.891Z,1020.52
2017-10-15T04:11:39.897Z,1020.6
2017-10-15T04:12:49.214Z,1020.56
2017-10-15T04:13:58.526Z,1020.52
2017-10-15T04:15:07.612Z,1020.53
2017-10-15T04:16:16.274Z,1020.58
2017-10-15T04:17:25.606Z,1020.52
2017-10-15T04:18:34.288Z,1020.56
2017-10-15T04:19:42.953Z,1020.57
2017-10-15T04:20:52.599Z,1020.57
2017-10-15T04:22:01.592Z,1020.56
2017-10-15T04:23:10.582Z,1020.54
2017-10-15T04:24:19.245Z,1020.54
2017-10-15T04:25:28.548Z,1020.58
2017-10-15T04:26:37.959Z,1020.53
2017-10-15T04:27:47.260Z,1020.55
2017-10-15T04:28:56.571Z,1020.54
2017-10-15T04:30:05.560Z,1020.56
2017-10-15T04:31:14.869Z,1020.51
2017-10-15T04:32:23.849Z,1020.53
2017-10-15T04:33:33.477Z,1020.52
2017-10-15T04:34:43.126Z,1020.5
2017-10-15T04:35:52.125Z,1020.51
2017-10-15T04:37:00.841Z,1020.48
2017-10-15T04:38:09.848Z,1020.49
2017-10-15T04:39:18.507Z,1020.5
2017-10-15T04:40:27.169Z,1020.51
2017-10-15T04:41:36.138Z,1020.5
2017-10-15T04:42:45.466Z,1020.5
2017-10-15T04:43:54.454Z,1020.5
2017-10-15T04:45:04.421Z,1020.46
2017-10-15T04:46:13.745Z,1020.48
2017-10-15T04:47:23.074Z,1020.47
2017-10-15T04:48:32.069Z,1020.49
2017-10-15T04:49:40.733Z,1020.52
2017-10-15T04:50:49.392Z,1020.48
2017-10-15T04:51:58.705Z,1020.54
2017-10-15T04:53:07.352Z,1020.49
2017-10-15T04:54:16.673Z,1020.48
2017-10-15T04:55:25.342Z,1020.52
2017-10-15T04:56:34.643Z,1020.49
2017-10-15T04:57:43.304Z,1020.5
2017-10-15T04:58:51.955Z,1020.49
2017-10-15T05:00:00.936Z,1020.52
2017-10-15T05:01:09.926Z,1020.49
2017-10-15T05:02:18.965Z,1020.47
2017-10-15T05:03:27.955Z,1020.48
2017-10-15T05:04:37.592Z,1020.48
2017-10-15T05:05:46.247Z,1020.48
2017-10-15T05:06:56.225Z,1020.46
2017-10-15T05:08:05.568Z,1020.51
2017-10-15T05:09:14.878Z,1020.5
2017-10-15T05:10:24.858Z,1020.52
2017-10-15T05:11:34.157Z,1020.5
2017-10-15T05:12:42.813Z,1020.51
2017-10-15T05:13:52.146Z,1020.48
2017-10-15T05:15:01.133Z,1020.48
2017-10-15T05:16:10.130Z,1020.5
2017-10-15T05:17:19.130Z,1020.48
2017-10-15T05:18:28.109Z,1020.52
2017-10-15T05:19:36.768Z,1020.51
2017-10-15T05:20:46.084Z,1020.48
2017-10-15T05:21:55.061Z,1020.42
2017-10-15T05:23:04.042Z,1020.47
2017-10-15T05:24:12.702Z,1020.47
2017-10-15T05:25:22.013Z,1020.46
2017-10-15T05:26:30.989Z,1020.44
2017-10-15T05:27:40.323Z,1020.47
2017-10-15T05:28:49.293Z,1020.44
2017-10-15T05:29:58.714Z,1020.49
2017-10-15T05:31:08.032Z,1020.48
2017-10-15T05:32:17.357Z,1020.49
2017-10-15T05:33:26.017Z,1020.51
2017-10-15T05:34:35.664Z,1020.55
2017-10-15T05:35:45.004Z,1020.53
2017-10-15T05:36:53.982Z,1020.51
2017-10-15T05:38:03.298Z,1020.51
2017-10-15T05:39:12.340Z,1020.5
2017-10-15T05:40:22.336Z,1020.48
2017-10-15T05:41:31.320Z,1020.51
2017-10-15T05:42:40.644Z,1020.53
2017-10-15T05:43:49.642Z,1020.53
2017-10-15T05:44:58.305Z,1020.5
2017-10-15T05:46:07.621Z,1020.53
2017-10-15T05:47:16.263Z,1020.49
2017-10-15T05:48:25.891Z,1020.49
2017-10-15T05:49:34.550Z,1020.47
2017-10-15T05:50:43.202Z,1020.46
2017-10-15T05:51:51.880Z,1020.45
2017-10-15T05:53:01.512Z,1020.47
2017-10-15T05:54:10.160Z,1020.46
2017-10-15T05:55:19.142Z,1020.45
2017-10-15T05:56:28.449Z,1020.4
2017-10-15T05:57:37.457Z,1020.45
2017-10-15T05:58:46.438Z,1020.45
2017-10-15T05:59:55.433Z,1020.45
2017-10-15T06:01:04.427Z,1020.45
2017-10-15T06:02:13.081Z,1020.45
2017-10-15T06:03:22.403Z,1020.44
2017-10-15T06:04:31.485Z,1020.48
2017-10-15T06:05:40.489Z,1020.42
2017-10-15T06:06:50.137Z,1020.41
2017-10-15T06:07:59.471Z,1020.44
2017-10-15T06:09:08.769Z,1020.38
2017-10-15T06:10:17.434Z,1020.38
2017-10-15T06:11:26.426Z,1020.43
2017-10-15T06:12:36.084Z,1020.41
2017-10-15T06:13:45.392Z,1020.45
2017-10-15T06:14:54.707Z,1020.47
2017-10-15T06:16:04.023Z,1020.45
2017-10-15T06:17:13.024Z,1020.45
2017-10-15T06:18:21.782Z,1020.43
2017-10-15T06:19:30.773Z,1020.47
2017-10-15T06:20:40.434Z,1020.47
2017-10-15T06:21:49.433Z,1020.46
2017-10-15T06:22:58.814Z,1020.46
2017-10-15T06:24:08.112Z,1020.48
2017-10-15T06:25:17.088Z,1020.5
2017-10-15T06:26:26.063Z,1020.51
2017-10-15T06:27:35.382Z,1020.48
2017-10-15T06:28:44.101Z,1020.48
2017-10-15T06:29:53.117Z,1020.48
2017-10-15T06:31:02.419Z,1020.48
2017-10-15T06:32:11.732Z,1020.5
2017-10-15T06:33:20.719Z,1020.52
2017-10-15T06:34:30.083Z,1020.47
2017-10-15T06:35:39.485Z,1020.49
2017-10-15T06:36:48.803Z,1020.48
2017-10-15T06:37:58.161Z,1020.49
2017-10-15T06:39:07.129Z,1020.48
2017-10-15T06:40:16.454Z,1020.49
2017-10-15T06:41:25.441Z,1020.44
2017-10-15T06:42:34.428Z,1020.46
2017-10-15T06:43:43.414Z,1020.46
2017-10-15T06:44:52.760Z,1020.45
2017-10-15T06:46:02.276Z,1020.43
2017-10-15T06:47:11.418Z,1020.44
2017-10-15T06:48:21.118Z,1020.43
2017-10-15T06:49:30.497Z,1020.43
2017-10-15T06:50:39.642Z,1020.43
2017-10-15T06:51:48.717Z,1020.44
2017-10-15T06:52:57.703Z,1020.47
2017-10-15T06:54:06.863Z,1020.46
2017-10-15T06:55:16.190Z,1020.45
2017-10-15T06:56:25.636Z,1020.44
2017-10-15T06:57:34.625Z,1020.45
2017-10-15T06:58:44.291Z,1020.4
2017-10-15T06:59:54.723Z,1020.41
2017-10-15T07:01:05.321Z,1020.43
2017-10-15T07:02:15.452Z,1020.42
2017-10-15T07:03:24.682Z,1020.43
2017-10-15T07:04:34.128Z,1020.45
2017-10-15T07:05:42.797Z,1020.47
2017-10-15T07:06:52.115Z,1020.47
2017-10-15T07:08:01.224Z,1020.49
2017-10-15T07:09:10.240Z,1020.45
2017-10-15T07:10:19.226Z,1020.49
2017-10-15T07:11:28.859Z,1020.47
2017-10-15T07:12:37.722Z,1020.45
2017-10-15T07:13:46.719Z,1020.46
2017-10-15T07:14:55.716Z,1020.49
2017-10-15T07:16:04.715Z,1020.49
2017-10-15T07:17:14.942Z,1020.51
2017-10-15T07:18:24.306Z,1020.49
2017-10-15T07:19:32.968Z,1020.47
2017-10-15T07:20:42.274Z,1020.5
2017-10-15T07:21:50.938Z,1020.49
2017-10-15T07:22:59.607Z,1020.5
2017-10-15T07:24:08.600Z,1020.5
2017-10-15T07:25:18.252Z,1020.54
2017-10-15T07:26:27.249Z,1020.52
2017-10-15T07:27:36.577Z,1020.54
2017-10-15T07:28:45.247Z,1020.5
2017-10-15T07:29:54.555Z,1020.51
2017-10-15T07:31:04.563Z,1020.55
2017-10-15T07:32:13.884Z,1020.55
2017-10-15T07:33:23.210Z,1020.49
2017-10-15T07:34:31.875Z,1020.49
2017-10-15T07:35:40.868Z,1020.49
2017-10-15T07:36:50.194Z,1020.48
2017-10-15T07:37:59.838Z,1020.42
2017-10-15T07:39:09.149Z,1020.48
2017-10-15T07:40:17.814Z,1020.48
2017-10-15T07:41:26.799Z,1020.46
2017-10-15T07:42:36.222Z,1020.47
2017-10-15T07:43:45.567Z,1020.49
2017-10-15T07:44:54.886Z,1020.49
2017-10-15T07:46:03.977Z,1020.48
2017-10-15T07:47:12.727Z,1020.5
2017-10-15T07:48:22.055Z,1020.48
2017-10-15T07:49:31.372Z,1020.51
2017-10-15T07:50:40.356Z,1020.5
2017-10-15T07:51:49.333Z,1020.48
2017-10-15T07:52:58.002Z,1020.47
2017-10-15T07:54:07.306Z,1020.48
2017-10-15T07:55:16.624Z,1020.49
2017-10-15T07:56:25.729Z,1020.5
2017-10-15T07:57:35.376Z,1020.47
2017-10-15T07:58:44.687Z,1020.51
2017-10-15T07:59:53.694Z,1020.44
2017-10-15T08:01:02.694Z,1020.49
2017-10-15T08:02:11.743Z,1020.4
2017-10-15T08:03:20.751Z,1020.39
2017-10-15T08:04:30.067Z,1020.38
2017-10-15T08:05:38.786Z,1020.36
2017-10-15T08:06:48.125Z,1020.39
2017-10-15T08:07:57.453Z,1020.38
2017-10-15T08:09:06.781Z,1020.32
2017-10-15T08:10:15.459Z,1020.36
2017-10-15T08:11:24.769Z,1020.32
2017-10-15T08:12:33.785Z,1020.29
2017-10-15T08:13:42.762Z,1020.37
2017-10-15T08:14:52.094Z,1020.31
2017-10-15T08:16:01.762Z,1020.22
2017-10-15T08:17:10.763Z,1020.27
2017-10-15T08:18:20.455Z,1020.28
2017-10-15T08:19:29.437Z,1020.23
2017-10-15T08:20:38.750Z,1020.27
2017-10-15T08:21:48.152Z,1020.31
2017-10-15T08:22:56.814Z,1020.3
2017-10-15T08:24:18.882Z,1020.29
2017-10-15T08:25:28.183Z,1020.27
2017-10-15T08:26:37.186Z,1020.28
2017-10-15T08:27:46.181Z,1020.29
2017-10-15T08:28:55.833Z,1020.27
2017-10-15T08:30:04.825Z,1020.3
2017-10-15T08:31:14.156Z,1020.28
2017-10-15T08:32:23.474Z,1020.31
2017-10-15T08:33:32.499Z,1020.29
2017-10-15T08:34:41.508Z,1020.31
2017-10-15T08:35:50.516Z,1020.31
2017-10-15T08:36:59.490Z,1020.31
2017-10-15T08:38:08.805Z,1020.31
2017-10-15T08:39:18.177Z,1020.27
2017-10-15T08:40:27.150Z,1020.25
2017-10-15T08:41:36.469Z,1020.26
2017-10-15T08:42:45.280Z,1020.27
2017-10-15T08:43:54.933Z,1020.22
2017-10-15T08:45:04.244Z,1020.22
2017-10-15T08:46:13.241Z,1020.23
2017-10-15T08:47:22.232Z,1020.22
2017-10-15T08:48:31.221Z,1020.23
2017-10-15T08:49:40.552Z,1020.24
2017-10-15T08:50:50.571Z,1020.2
2017-10-15T08:51:59.242Z,1020.15
2017-10-15T08:53:08.576Z,1020.15
2017-10-15T08:54:17.282Z,1020.18
2017-10-15T08:55:26.891Z,1020.15
2017-10-15T08:56:36.189Z,1020.15
2017-10-15T08:57:45.591Z,1020.17
2017-10-15T08:58:55.584Z,1020.14
2017-10-15T09:00:04.612Z,1020.17
2017-10-15T09:01:14.261Z,1020.15
2017-10-15T09:02:22.928Z,1020.13
2017-10-15T09:03:31.605Z,1020.13
2017-10-15T09:04:40.277Z,1020.13
2017-10-15T09:05:49.276Z,1020.17
2017-10-15T09:06:58.262Z,1020.1
2017-10-15T09:08:07.034Z,1020.12
2017-10-15T09:09:16.271Z,1020.1
2017-10-15T09:10:25.015Z,1020.12
2017-10-15T09:11:34.763Z,1020.12
2017-10-15T09:12:44.457Z,1020.15
2017-10-15T09:13:53.441Z,1020.1
2017-10-15T09:15:02.466Z,1020.12
2017-10-15T09:16:11.798Z,1020.14
2017-10-15T09:17:21.105Z,1020.14
2017-10-15T09:18:30.776Z,1020.16
2017-10-15T09:19:40.122Z,1020.12
2017-10-15T09:20:49.432Z,1020.12
2017-10-15T09:21:58.464Z,1020.11
2017-10-15T09:23:08.259Z,1020.1
2017-10-15T09:24:17.597Z,1020.09
2017-10-15T09:25:26.929Z,1020.12
2017-10-15T09:26:35.972Z,1020.06
2017-10-15T09:27:44.996Z,1020.05
2017-10-15T09:28:53.652Z,1020.08
2017-10-15T09:30:02.308Z,1020.03
2017-10-15T09:31:11.051Z,1020.03
2017-10-15T09:32:20.055Z,1020.01
2017-10-15T09:33:29.086Z,1020.02
2017-10-15T09:34:38.173Z,1020.01
2017-10-15T09:35:46.868Z,1019.98
2017-10-15T09:36:55.551Z,1019.94
2017-10-15T09:38:04.532Z,1019.95
2017-10-15T09:39:13.506Z,1019.96
2017-10-15T09:40:22.502Z,1019.93
2017-10-15T09:41:31.516Z,1019.92
2017-10-15T09:42:40.531Z,1019.92
2017-10-15T09:43:49.196Z,1019.9
2017-10-15T09:44:57.889Z,1019.85
2017-10-15T09:46:07.878Z,1019.85
2017-10-15T09:47:16.530Z,1019.85
2017-10-15T09:48:25.963Z,1019.81
2017-10-15T09:49:35.305Z,1019.84
2017-10-15T09:50:44.291Z,1019.85
2017-10-15T09:51:53.607Z,1019.83
2017-10-15T09:53:02.282Z,1019.81
2017-10-15T09:54:11.294Z,1019.83
2017-10-15T09:55:20.281Z,1019.78
2017-10-15T09:56:29.599Z,1019.76
2017-10-15T09:57:38.920Z,1019.77
2017-10-15T09:58:47.995Z,1019.69
2017-10-15T09:59:56.675Z,1019.74
2017-10-15T10:01:05.338Z,1019.69
2017-10-15T10:02:14.324Z,1019.68
2017-10-15T10:03:23.315Z,1019.68
2017-10-15T10:04:32.298Z,1019.67
2017-10-15T10:05:41.007Z,1019.66
2017-10-15T10:06:49.707Z,1019.65
2017-10-15T10:07:58.710Z,1019.63
2017-10-15T10:09:08.048Z,1019.63
2017-10-15T10:10:16.731Z,1019.59
2017-10-15T10:11:26.073Z,1019.57
2017-10-15T10:12:35.071Z,1019.6
2017-10-15T10:13:43.754Z,1019.58
2017-10-15T10:14:53.082Z,1019.58
2017-10-15T10:16:02.404Z,1019.54
2017-10-15T10:17:11.189Z,1019.56
2017-10-15T10:18:20.181Z,1019.55
2017-10-15T10:19:29.173Z,1019.51
2017-10-15T10:20:37.828Z,1019.5
2017-10-15T10:21:46.833Z,1019.43
2017-10-15T10:22:56.625Z,1019.45
2017-10-15T10:24:06.603Z,1019.44
2017-10-15T10:25:15.264Z,1019.48
2017-10-15T10:26:24.583Z,1019.46
2017-10-15T10:27:33.580Z,1019.44
2017-10-15T10:28:42.644Z,1019.45
2017-10-15T10:29:52.950Z,1019.44
2017-10-15T10:31:01.624Z,1019.43
2017-10-15T10:32:11.617Z,1019.37
2017-10-15T10:33:20.330Z,1019.38
2017-10-15T10:34:29.739Z,1019.39
2017-10-15T10:35:38.889Z,1019.38
2017-10-15T10:36:47.670Z,1019.38
2017-10-15T10:37:56.979Z,1019.38
2017-10-15T10:39:05.650Z,1019.37
2017-10-15T10:40:14.638Z,1019.38
2017-10-15T10:41:23.316Z,1019.36
2017-10-15T10:42:31.969Z,1019.31
2017-10-15T10:43:40.654Z,1019.34
2017-10-15T10:44:49.311Z,1019.31
2017-10-15T10:45:57.982Z,1019.29
2017-10-15T10:47:06.652Z,1019.28
2017-10-15T10:48:15.657Z,1019.27
2017-10-15T10:49:25.015Z,1019.27
2017-10-15T10:50:34.374Z,1019.27
2017-10-15T10:51:44.040Z,1019.23
2017-10-15T10:52:52.721Z,1019.24
2017-10-15T10:54:01.425Z,1019.25
2017-10-15T10:55:10.432Z,1019.16
2017-10-15T10:56:19.404Z,1019.16
2017-10-15T10:57:28.076Z,1019.2
2017-10-15T10:58:37.399Z,1019.18
2017-10-15T10:59:46.383Z,1019.16
2017-10-15T11:00:56.400Z,1019.16
2017-10-15T11:02:05.719Z,1019.12
2017-10-15T11:03:15.068Z,1019.09
2017-10-15T11:04:24.057Z,1019.1
2017-10-15T11:05:33.361Z,1019.08
2017-10-15T11:06:42.673Z,1019.07
2017-10-15T11:07:52.005Z,1019.09
2017-10-15T11:09:01.310Z,1019
2017-10-15T11:10:10.302Z,1019.05
2017-10-15T11:11:19.287Z,1018.98
2017-10-15T11:12:28.603Z,1018.96
2017-10-15T11:13:37.610Z,1018.99
2017-10-15T11:14:46.937Z,1018.96
2017-10-15T11:15:55.668Z,1018.98
2017-10-15T11:17:04.327Z,1018.94
2017-10-15T11:18:12.975Z,1018.94
2017-10-15T11:19:21.959Z,1018.93
2017-10-15T11:20:31.050Z,1018.94
2017-10-15T11:21:40.384Z,1018.9
2017-10-15T11:22:49.054Z,1018.93
2017-10-15T11:23:58.037Z,1018.92
2017-10-15T11:25:07.344Z,1018.94
2017-10-15T11:26:16.660Z,1018.9
2017-10-15T11:27:25.318Z,1018.89
2017-10-15T11:28:34.298Z,1018.86
2017-10-15T11:29:43.287Z,1018.85
2017-10-15T11:30:52.290Z,1018.81
2017-10-15T11:32:01.286Z,1018.79
2017-10-15T11:33:09.951Z,1018.74
2017-10-15T11:34:18.604Z,1018.78
2017-10-15T11:35:27.588Z,1018.77
2017-10-15T11:36:36.243Z,1018.78
2017-10-15T11:37:45.226Z,1018.76
2017-10-15T11:38:54.202Z,1018.69
2017-10-15T11:40:03.194Z,1018.72
2017-10-15T11:41:12.608Z,1018.65
2017-10-15T11:42:21.614Z,1018.65
2017-10-15T11:43:30.387Z,1018.63
2017-10-15T11:44:39.047Z,1018.64
2017-10-15T11:45:47.714Z,1018.63
2017-10-15T11:46:57.016Z,1018.59
2017-10-15T11:48:06.317Z,1018.58
2017-10-15T11:49:14.972Z,1018.6
2017-10-15T11:50:23.639Z,1018.55
2017-10-15T11:51:32.956Z,1018.49
2017-10-15T11:52:42.309Z,1018.58
2017-10-15T11:53:50.982Z,1018.53
2017-10-15T11:55:00.303Z,1018.53
2017-10-15T11:56:09.344Z,1018.51
2017-10-15T11:57:18.332Z,1018.48
2017-10-15T11:58:27.634Z,1018.46
2017-10-15T11:59:36.953Z,1018.45
2017-10-15T12:00:46.371Z,1018.41
2017-10-15T12:01:55.355Z,1018.43
2017-10-15T12:03:04.019Z,1018.42
2017-10-15T12:04:12.677Z,1018.36
2017-10-15T12:05:22.003Z,1018.43
2017-10-15T12:06:30.692Z,1018.39
2017-10-15T12:07:40.012Z,1018.39
2017-10-15T12:08:49.333Z,1018.39
2017-10-15T12:09:58.051Z,1018.34
2017-10-15T12:11:07.108Z,1018.32
2017-10-15T12:12:16.161Z,1018.33
2017-10-15T12:13:25.159Z,1018.32
2017-10-15T12:14:34.799Z,1018.3
2017-10-15T12:15:44.129Z,1018.27
2017-10-15T12:16:52.774Z,1018.26
2017-10-15T12:18:01.448Z,1018.23
2017-10-15T12:19:10.115Z,1018.22
2017-10-15T12:20:19.423Z,1018.2
2017-10-15T12:21:28.082Z,1018.2
2017-10-15T12:22:36.773Z,1018.18
2017-10-15T12:23:46.450Z,1018.2
2017-10-15T12:24:55.445Z,1018.17
2017-10-15T12:26:04.780Z,1018.12
2017-10-15T12:27:13.774Z,1018.12
2017-10-15T12:28:23.756Z,1018.12
2017-10-15T12:29:32.750Z,1018.15
2017-10-15T12:30:41.744Z,1018.12
2017-10-15T12:31:51.105Z,1018.13
2017-10-15T12:33:00.419Z,1018.13
2017-10-15T12:34:09.402Z,1018.14
2017-10-15T12:35:19.100Z,1018.07
2017-10-15T12:36:27.769Z,1018.07
2017-10-15T12:37:36.751Z,1018.03
2017-10-15T12:38:45.473Z,1018
2017-10-15T12:39:54.205Z,1017.99
2017-10-15T12:41:03.854Z,1017.99
2017-10-15T12:42:12.878Z,1017.99
2017-10-15T12:43:21.885Z,1017.98
2017-10-15T12:44:30.969Z,1017.96
2017-10-15T12:45:39.939Z,1017.92
2017-10-15T12:46:48.976Z,1017.98
2017-10-15T12:47:57.975Z,1017.97
2017-10-15T12:49:06.966Z,1017.97
2017-10-15T12:50:15.983Z,1017.92
2017-10-15T12:51:25.282Z,1017.86
2017-10-15T12:52:34.327Z,1017.86
2017-10-15T12:53:42.985Z,1017.85
2017-10-15T12:54:51.675Z,1017.88
2017-10-15T12:56:00.329Z,1017.83
2017-10-15T12:57:09.019Z,1017.87
2017-10-15T12:58:18.671Z,1017.89
2017-10-15T12:59:27.355Z,1017.88
2017-10-15T13:00:36.705Z,1017.87
2017-10-15T13:01:45.367Z,1017.86
2017-10-15T13:02:54.365Z,1017.84
2017-10-15T13:04:03.678Z,1017.86
2017-10-15T13:05:12.340Z,1017.82
2017-10-15T13:06:21.097Z,1017.82
2017-10-15T13:07:29.766Z,1017.78
2017-10-15T13:08:38.425Z,1017.8
2017-10-15T13:09:48.067Z,1017.81
2017-10-15T13:10:57.425Z,1017.75
2017-10-15T13:12:06.094Z,1017.76
2017-10-15T13:13:15.761Z,1017.79
2017-10-15T13:14:25.073Z,1017.74
2017-10-15T13:15:33.759Z,1017.72
2017-10-15T13:16:43.087Z,1017.74
2017-10-15T13:17:52.071Z,1017.73
2017-10-15T13:19:00.737Z,1017.67
2017-10-15T13:20:09.730Z,1017.7
2017-10-15T13:21:19.052Z,1017.69
2017-10-15T13:22:27.721Z,1017.68
2017-10-15T13:23:37.049Z,1017.66
2017-10-15T13:24:45.737Z,1017.63
2017-10-15T13:25:55.081Z,1017.65
2017-10-15T13:27:03.904Z,1017.62
2017-10-15T13:28:12.621Z,1017.59
2017-10-15T13:29:21.961Z,1017.64
2017-10-15T13:30:31.025Z,1017.58
2017-10-15T13:31:40.351Z,1017.6
2017-10-15T13:32:49.106Z,1017.59
2017-10-15T13:33:58.439Z,1017.56
2017-10-15T13:35:07.474Z,1017.51
2017-10-15T13:36:16.561Z,1017.52
2017-10-15T13:37:25.984Z,1017.51
2017-10-15T13:38:35.762Z,1017.51
2017-10-15T13:39:45.161Z,1017.47
2017-10-15T13:40:53.879Z,1017.43
2017-10-15T13:42:03.262Z,1017.44
2017-10-15T13:43:12.273Z,1017.42
2017-10-15T13:44:21.920Z,1017.39
2017-10-15T13:45:31.285Z,1017.38
2017-10-15T13:46:40.322Z,1017.34
2017-10-15T13:47:49.413Z,1017.41
2017-10-15T13:48:58.113Z,1017.4
2017-10-15T13:50:07.436Z,1017.37
2017-10-15T13:51:16.141Z,1017.4
2017-10-15T13:52:25.136Z,1017.4
2017-10-15T13:53:33.853Z,1017.38
2017-10-15T13:54:43.530Z,1017.38
2017-10-15T13:55:53.256Z,1017.44
2017-10-15T13:57:01.921Z,1017.34
2017-10-15T13:58:10.934Z,1017.4
2017-10-15T13:59:19.926Z,1017.41